createdAt,value
2022-12-25T00:01:22.675Z,5.15
2022-12-25T00:03:50.424Z,5.18
2022-12-25T00:06:18.032Z,5.20
2022-12-25T00:08:46.372Z,5.07
2022-12-25T00:11:16.236Z,5.01
2022-12-25T00:13:45.167Z,4.98
2022-12-25T00:16:21.521Z,5.00
2022-12-25T00:18:50.076Z,4.86
2022-12-25T00:21:18.147Z,4.76
2022-12-25T00:23:45.355Z,4.63
2022-12-25T00:26:17.612Z,4.83
2022-12-25T00:28:45.066Z,4.74
2022-12-25T00:31:18.217Z,4.75
2022-12-25T00:33:47.261Z,4.76
2022-12-25T00:36:16.180Z,4.82
2022-12-25T00:38:44.092Z,4.71
2022-12-25T00:41:13.401Z,4.74
2022-12-25T00:43:42.205Z,4.70
2022-12-25T00:46:12.425Z,4.70
2022-12-25T00:48:40.552Z,4.64
2022-12-25T00:51:11.498Z,4.72
2022-12-25T00:53:38.922Z,4.70
2022-12-25T00:56:07.601Z,4.76
2022-12-25T00:58:36.043Z,4.73
2022-12-25T01:01:04.032Z,4.87
2022-12-25T01:03:31.191Z,4.89
2022-12-25T01:06:01.687Z,4.76
2022-12-25T01:08:36.402Z,4.64
2022-12-25T01:11:06.662Z,4.68
2022-12-25T01:13:35.739Z,4.76
2022-12-25T01:16:11.414Z,4.66
2022-12-25T01:18:39.262Z,4.48
2022-12-25T01:21:18.371Z,4.57
2022-12-25T01:23:45.619Z,4.57
2022-12-25T01:26:14.143Z,4.70
2022-12-25T01:28:41.703Z,4.69
2022-12-25T01:31:12.039Z,4.74
2022-12-25T01:33:40.708Z,4.62
2022-12-25T01:36:19.023Z,4.76
2022-12-25T01:38:47.271Z,4.92
2022-12-25T01:41:16.815Z,4.79
2022-12-25T01:44:37.424Z,4.99
2022-12-25T01:47:05.692Z,4.69
2022-12-25T01:49:36.590Z,4.61
2022-12-25T01:52:06.706Z,4.63
2022-12-25T01:54:39.495Z,4.53
2022-12-25T01:57:10.932Z,4.43
2022-12-25T01:59:38.196Z,4.50
2022-12-25T02:02:05.457Z,4.35
2022-12-25T02:04:40.539Z,4.36
2022-12-25T02:07:15.697Z,4.34
2022-12-25T02:09:45.354Z,4.34
2022-12-25T02:12:20.305Z,4.28
2022-12-25T02:14:49.867Z,4.41
2022-12-25T02:17:29.254Z,4.46
2022-12-25T02:20:50.199Z,4.67
2022-12-25T02:23:49.672Z,4.75
2022-12-25T02:26:33.263Z,4.74
2022-12-25T02:29:10.478Z,4.63
2022-12-25T02:32:10.934Z,4.58
2022-12-25T02:34:41.083Z,4.50
2022-12-25T02:37:16.503Z,4.49
2022-12-25T02:40:15.879Z,4.55
2022-12-25T02:43:10.641Z,4.56
2022-12-25T02:46:41.482Z,4.61
2022-12-25T02:49:47.090Z,4.74
2022-12-25T02:52:35.984Z,4.77
2022-12-25T02:55:33.072Z,4.67
2022-12-25T02:58:23.641Z,4.64
2022-12-25T03:01:16.363Z,4.59
2022-12-25T03:04:05.752Z,4.66
2022-12-25T03:09:45.243Z,4.57
2022-12-25T03:12:42.609Z,4.59
2022-12-25T03:15:31.376Z,4.48
2022-12-25T03:18:03.750Z,4.47
2022-12-25T03:20:50.705Z,4.57
2022-12-25T03:23:44.372Z,4.68
2022-12-25T03:26:29.850Z,4.56
2022-12-25T03:28:56.854Z,4.95
2022-12-25T03:31:53.838Z,4.95
2022-12-25T03:35:12.480Z,4.87
2022-12-25T03:37:45.319Z,4.79
2022-12-25T03:40:48.688Z,4.71
2022-12-25T03:43:34.470Z,4.60
2022-12-25T03:46:27.796Z,4.57
2022-12-25T03:49:22.116Z,4.58
2022-12-25T03:52:10.842Z,4.54
2022-12-25T03:54:59.953Z,4.43
2022-12-25T03:57:45.644Z,4.46
2022-12-25T04:00:31.723Z,4.51
2022-12-25T04:03:18.821Z,4.56
2022-12-25T04:06:04.204Z,4.41
2022-12-25T04:08:50.103Z,4.49
2022-12-25T04:11:35.957Z,4.54
2022-12-25T04:14:21.658Z,4.58
2022-12-25T04:17:07.359Z,4.56
2022-12-25T04:19:52.802Z,4.47
2022-12-25T04:22:55.256Z,4.48
2022-12-25T04:25:40.800Z,4.45
2022-12-25T04:28:26.897Z,4.37
2022-12-25T04:31:12.389Z,4.35
2022-12-25T04:33:57.958Z,4.44
2022-12-25T04:36:24.922Z,4.58
2022-12-25T04:38:52.095Z,4.22
2022-12-25T04:41:19.210Z,4.07
2022-12-25T04:43:46.365Z,3.94
2022-12-25T04:46:13.465Z,3.91
2022-12-25T04:48:40.716Z,4.03
2022-12-25T04:51:12.023Z,4.24
2022-12-25T04:53:39.095Z,4.27
2022-12-25T04:56:06.487Z,4.42
2022-12-25T04:58:33.651Z,4.51
2022-12-25T05:01:03.842Z,4.79
2022-12-25T05:03:32.715Z,4.71
2022-12-25T05:06:01.036Z,4.76
2022-12-25T05:08:33.222Z,4.76
2022-12-25T05:11:04.844Z,4.81
2022-12-25T05:13:32.374Z,4.67
2022-12-25T05:15:59.525Z,4.84
2022-12-25T05:18:26.879Z,4.82
2022-12-25T05:20:55.290Z,4.77
2022-12-25T05:23:22.981Z,4.76
2022-12-25T05:25:50.108Z,4.72
2022-12-25T05:28:17.306Z,4.84
2022-12-25T05:30:44.599Z,4.84
2022-12-25T05:33:11.865Z,4.86
2022-12-25T05:35:39.882Z,4.88
2022-12-25T05:38:08.052Z,4.87
2022-12-25T05:40:38.622Z,4.89
2022-12-25T05:43:06.143Z,4.92
2022-12-25T05:45:33.290Z,4.80
2022-12-25T05:48:00.468Z,4.80
2022-12-25T05:50:27.716Z,4.68
2022-12-25T05:53:08.345Z,4.76
2022-12-25T05:55:41.420Z,4.63
2022-12-25T05:58:08.948Z,4.79
2022-12-25T06:00:36.503Z,4.86
2022-12-25T06:03:03.947Z,4.67
2022-12-25T06:05:31.737Z,4.54
2022-12-25T06:07:59.029Z,4.55
2022-12-25T06:10:26.239Z,4.53
2022-12-25T06:12:53.416Z,4.46
2022-12-25T06:15:20.677Z,4.49
2022-12-25T06:17:47.736Z,4.53
2022-12-25T06:20:14.915Z,4.77
2022-12-25T06:22:42.009Z,4.75
2022-12-25T06:25:09.997Z,4.70
2022-12-25T06:27:37.462Z,4.75
2022-12-25T06:30:05.448Z,4.65
2022-12-25T06:32:32.594Z,4.69
2022-12-25T06:34:59.845Z,4.55
2022-12-25T06:37:26.883Z,4.48
2022-12-25T06:39:54.325Z,4.58
2022-12-25T06:42:21.631Z,4.65
2022-12-25T06:44:48.890Z,4.68
2022-12-25T06:47:16.224Z,4.60
2022-12-25T06:49:43.509Z,4.65
2022-12-25T06:52:10.767Z,4.66
2022-12-25T06:54:37.850Z,4.83
2022-12-25T06:57:05.026Z,4.93
2022-12-25T06:59:32.124Z,5.00
2022-12-25T07:01:59.685Z,4.97
2022-12-25T07:04:33.626Z,4.93
2022-12-25T07:07:08.103Z,4.97
2022-12-25T07:09:36.393Z,4.98
2022-12-25T07:12:26.472Z,4.96
2022-12-25T07:14:56.759Z,4.89
2022-12-25T07:17:24.546Z,4.80
2022-12-25T07:19:51.871Z,4.81
2022-12-25T07:22:19.359Z,4.79
2022-12-25T07:24:46.583Z,4.80
2022-12-25T07:27:13.849Z,5.00
2022-12-25T07:29:41.070Z,4.95
2022-12-25T07:32:08.696Z,4.88
2022-12-25T07:34:35.966Z,4.82
2022-12-25T07:37:03.114Z,4.84
2022-12-25T07:39:30.390Z,4.88
2022-12-25T07:41:57.510Z,4.99
2022-12-25T07:44:27.821Z,4.94
2022-12-25T07:46:55.063Z,4.90
2022-12-25T07:49:22.262Z,4.80
2022-12-25T07:51:49.726Z,4.79
2022-12-25T07:54:16.945Z,4.84
2022-12-25T07:56:44.173Z,4.73
2022-12-25T07:59:11.844Z,4.59
2022-12-25T08:01:39.267Z,4.40
2022-12-25T08:04:08.279Z,4.39
2022-12-25T08:06:36.080Z,4.51
2022-12-25T08:09:06.374Z,4.56
2022-12-25T08:11:33.883Z,4.62
2022-12-25T08:14:01.016Z,4.51
2022-12-25T08:16:28.332Z,4.62
2022-12-25T08:18:55.429Z,4.60
2022-12-25T08:21:22.694Z,4.66
2022-12-25T08:23:50.167Z,4.73
2022-12-25T08:26:22.216Z,4.85
2022-12-25T08:28:50.431Z,4.86
2022-12-25T08:31:22.547Z,4.92
2022-12-25T08:33:51.925Z,4.94
2022-12-25T08:36:19.472Z,4.93
2022-12-25T08:38:47.693Z,4.95
2022-12-25T08:41:15.827Z,4.92
2022-12-25T08:43:43.462Z,4.96
2022-12-25T08:46:10.850Z,5.04
2022-12-25T08:48:38.221Z,5.01
2022-12-25T08:51:08.681Z,5.03
2022-12-25T08:53:35.831Z,5.02
2022-12-25T08:56:07.217Z,5.06
2022-12-25T08:58:34.853Z,5.11
2022-12-25T09:01:02.161Z,5.16
2022-12-25T09:03:32.283Z,5.14
2022-12-25T09:06:05.293Z,5.25
2022-12-25T09:08:32.898Z,5.22
2022-12-25T09:11:05.202Z,5.19
2022-12-25T09:13:32.978Z,5.18
2022-12-25T09:16:00.707Z,5.24
2022-12-25T09:18:28.062Z,5.24
2022-12-25T09:21:06.877Z,5.33
2022-12-25T09:23:34.855Z,5.27
2022-12-25T09:26:04.612Z,5.27
2022-12-25T09:28:32.559Z,5.23
2022-12-25T09:31:00.365Z,5.25
2022-12-25T09:33:28.118Z,5.26
2022-12-25T09:36:04.661Z,5.24
2022-12-25T09:38:32.482Z,5.18
2022-12-25T09:41:05.408Z,5.24
2022-12-25T09:43:39.395Z,5.26
2022-12-25T09:46:14.026Z,5.27
2022-12-25T09:48:47.549Z,5.31
2022-12-25T09:51:17.513Z,5.23
2022-12-25T09:53:53.177Z,5.24
2022-12-25T09:56:27.194Z,5.27
2022-12-25T09:58:55.029Z,5.32
2022-12-25T10:01:37.870Z,5.34
2022-12-25T10:04:37.468Z,5.37
2022-12-25T10:07:36.664Z,5.46
2022-12-25T10:10:04.257Z,5.36
2022-12-25T10:12:42.766Z,5.21
2022-12-25T10:15:31.487Z,4.89
2022-12-25T10:18:23.753Z,4.75
2022-12-25T10:20:54.654Z,4.52
2022-12-25T10:23:30.889Z,4.50
2022-12-25T10:25:58.364Z,4.58
2022-12-25T10:28:32.836Z,4.62
2022-12-25T10:31:07.935Z,4.65
2022-12-25T10:33:35.209Z,4.76
2022-12-25T10:36:02.557Z,4.74
2022-12-25T10:38:29.637Z,4.71
2022-12-25T10:41:11.558Z,4.86
2022-12-25T10:43:51.498Z,4.82
2022-12-25T10:46:20.955Z,4.54
2022-12-25T10:48:58.055Z,4.54
2022-12-25T10:51:34.305Z,4.52
2022-12-25T10:54:27.260Z,4.55
2022-12-25T10:56:54.298Z,4.47
2022-12-25T10:59:21.743Z,4.46
2022-12-25T11:01:53.687Z,4.42
2022-12-25T11:04:28.661Z,4.49
2022-12-25T11:07:06.644Z,4.45
2022-12-25T11:09:34.739Z,4.20
2022-12-25T11:12:02.082Z,4.18
2022-12-25T11:14:30.848Z,4.12
2022-12-25T11:17:11.853Z,4.07
2022-12-25T11:19:39.481Z,4.00
2022-12-25T11:22:17.894Z,3.86
2022-12-25T11:24:47.732Z,3.91
2022-12-25T11:27:30.102Z,3.92
2022-12-25T11:30:03.437Z,3.94
2022-12-25T11:32:46.700Z,4.05
2022-12-25T11:35:17.352Z,4.11
2022-12-25T11:37:50.820Z,4.32
2022-12-25T11:40:25.300Z,4.44
2022-12-25T11:43:07.842Z,4.48
2022-12-25T11:46:10.683Z,4.64
2022-12-25T11:48:44.949Z,4.77
2022-12-25T11:51:15.701Z,4.84
2022-12-25T11:54:04.238Z,4.94
2022-12-25T11:56:31.712Z,4.96
2022-12-25T11:59:31.082Z,5.07
2022-12-25T12:02:22.835Z,4.90
2022-12-25T12:05:02.397Z,4.76
2022-12-25T12:07:32.287Z,4.66
2022-12-25T12:10:21.216Z,4.53
2022-12-25T12:13:11.234Z,4.43
2022-12-25T12:15:47.064Z,4.33
2022-12-25T12:18:26.711Z,4.51
2022-12-25T12:21:11.547Z,4.59
2022-12-25T12:24:09.596Z,4.63
2022-12-25T12:26:41.220Z,4.50
2022-12-25T12:29:30.345Z,4.55
2022-12-25T12:32:02.143Z,4.50
2022-12-25T12:34:48.135Z,4.46
2022-12-25T12:37:24.812Z,4.60
2022-12-25T12:39:54.809Z,4.56
2022-12-25T12:42:39.060Z,4.50
2022-12-25T12:45:18.570Z,4.53
2022-12-25T12:47:49.227Z,4.48
2022-12-25T12:50:39.994Z,4.43
2022-12-25T12:53:30.102Z,4.37
2022-12-25T12:56:09.052Z,4.23
2022-12-25T12:58:39.853Z,4.19
2022-12-25T13:01:28.443Z,4.21
2022-12-25T13:04:23.061Z,4.21
2022-12-25T13:07:03.319Z,4.13
2022-12-25T13:09:41.095Z,4.03
2022-12-25T13:12:09.431Z,4.13
2022-12-25T13:14:38.090Z,4.12
2022-12-25T13:17:08.802Z,4.27
2022-12-25T13:19:37.916Z,4.34
2022-12-25T13:22:07.071Z,4.40
2022-12-25T13:24:37.248Z,4.41
2022-12-25T13:27:26.083Z,4.46
2022-12-25T13:29:53.398Z,4.52
2022-12-25T13:32:29.847Z,4.52
2022-12-25T13:34:58.588Z,4.59
2022-12-25T13:37:29.055Z,4.53
2022-12-25T13:40:04.961Z,4.52
2022-12-25T13:42:36.527Z,4.62
2022-12-25T13:45:07.302Z,4.54
2022-12-25T13:47:38.843Z,4.59
2022-12-25T13:50:26.297Z,4.64
2022-12-25T13:52:55.779Z,4.66
2022-12-25T13:55:28.598Z,4.70
2022-12-25T13:57:59.426Z,4.79
2022-12-25T14:00:35.772Z,4.80
2022-12-25T14:03:05.410Z,4.60
2022-12-25T14:05:41.744Z,4.49
2022-12-25T14:08:16.522Z,4.42
2022-12-25T14:10:48.551Z,4.31
2022-12-25T14:13:18.457Z,4.41
2022-12-25T14:15:48.057Z,4.41
2022-12-25T14:18:17.352Z,4.44
2022-12-25T14:21:05.035Z,4.40
2022-12-25T14:23:42.834Z,4.34
2022-12-25T14:26:23.086Z,4.33
2022-12-25T14:28:53.803Z,4.12
2022-12-25T14:31:22.088Z,4.22
2022-12-25T14:33:50.969Z,4.22
2022-12-25T14:36:19.329Z,4.21
2022-12-25T14:38:57.174Z,4.35
2022-12-25T14:41:38.029Z,4.35
2022-12-25T14:44:27.757Z,4.36
2022-12-25T14:47:18.927Z,4.38
2022-12-25T14:49:47.576Z,4.27
2022-12-25T14:52:20.670Z,4.30
2022-12-25T14:54:55.987Z,4.33
2022-12-25T14:57:28.742Z,4.42
2022-12-25T15:00:02.915Z,4.51
2022-12-25T15:02:40.760Z,4.53
2022-12-25T15:05:27.314Z,4.57
2022-12-25T15:08:01.956Z,4.61
2022-12-25T15:10:58.755Z,4.51
2022-12-25T15:14:56.758Z,4.41
2022-12-25T15:17:29.844Z,4.44
2022-12-25T15:20:00.865Z,4.41
2022-12-25T15:22:37.505Z,4.47
2022-12-25T15:25:15.526Z,4.44
2022-12-25T15:27:42.751Z,4.52
2022-12-25T15:30:11.198Z,4.44
2022-12-25T15:32:40.630Z,4.37
2022-12-25T15:35:16.415Z,4.44
2022-12-25T15:37:43.586Z,4.52
2022-12-25T15:40:13.821Z,4.54
2022-12-25T15:42:45.017Z,4.46
2022-12-25T15:45:21.362Z,4.48
2022-12-25T15:47:48.898Z,4.47
2022-12-25T15:50:16.823Z,4.63
2022-12-25T15:52:44.064Z,4.61
2022-12-25T15:55:11.592Z,4.63
2022-12-25T15:57:42.437Z,4.59
2022-12-25T16:00:17.778Z,4.77
2022-12-25T16:02:45.496Z,4.89
2022-12-25T16:05:12.884Z,4.95
2022-12-25T16:07:40.212Z,4.91
2022-12-25T16:10:12.017Z,4.97
2022-12-25T16:12:39.486Z,5.05
2022-12-25T16:15:07.195Z,5.12
2022-12-25T16:17:34.409Z,5.38
2022-12-25T16:20:01.737Z,5.51
2022-12-25T16:22:30.829Z,5.57
2022-12-25T16:24:58.063Z,5.62
2022-12-25T16:27:25.491Z,5.64
2022-12-25T16:29:52.842Z,5.59
2022-12-25T16:32:22.476Z,5.69
2022-12-25T16:34:49.886Z,5.65
2022-12-25T16:37:17.084Z,5.71
2022-12-25T16:39:44.281Z,5.65
2022-12-25T16:42:11.365Z,5.57
2022-12-25T16:44:38.560Z,5.55
2022-12-25T16:47:05.885Z,5.62
2022-12-25T16:49:33.137Z,5.58
2022-12-25T16:52:00.191Z,5.47
2022-12-25T16:54:27.585Z,5.35
2022-12-25T16:56:54.954Z,5.32
2022-12-25T16:59:22.087Z,5.20
2022-12-25T17:01:49.363Z,5.06
2022-12-25T17:04:16.737Z,5.05
2022-12-25T17:06:43.824Z,5.01
2022-12-25T17:09:11.239Z,4.85
2022-12-25T17:11:38.340Z,4.90
2022-12-25T17:14:06.358Z,4.95
2022-12-25T17:16:36.069Z,5.06
2022-12-25T17:19:08.107Z,5.06
2022-12-25T17:21:38.525Z,5.01
2022-12-25T17:24:06.252Z,4.99
2022-12-25T17:26:33.702Z,5.06
2022-12-25T17:29:01.301Z,5.19
2022-12-25T17:31:29.202Z,5.28
2022-12-25T17:33:56.527Z,5.36
2022-12-25T17:36:23.863Z,5.30
2022-12-25T17:38:51.216Z,5.26
2022-12-25T17:41:21.702Z,5.33
2022-12-25T17:43:48.898Z,5.42
2022-12-25T17:46:27.437Z,5.50
2022-12-25T17:48:57.039Z,5.60
2022-12-25T17:51:26.464Z,5.67
2022-12-25T17:53:56.919Z,5.71
2022-12-25T17:56:25.038Z,5.59
2022-12-25T17:58:55.329Z,5.66
2022-12-25T18:01:24.099Z,5.79
2022-12-25T18:03:52.260Z,5.85
2022-12-25T18:06:23.217Z,5.90
2022-12-25T18:08:50.446Z,5.88
2022-12-25T18:11:20.780Z,5.95
2022-12-25T18:13:50.266Z,5.99
2022-12-25T18:16:20.982Z,6.04
2022-12-25T18:18:52.205Z,6.05
2022-12-25T18:21:22.504Z,6.08
2022-12-25T18:23:50.601Z,5.99
2022-12-25T18:26:18.756Z,6.06
2022-12-25T18:28:47.381Z,6.06
2022-12-25T18:31:23.310Z,5.99
2022-12-25T18:33:51.605Z,5.88
2022-12-25T18:36:21.822Z,6.07
2022-12-25T18:38:50.550Z,6.21
2022-12-25T18:41:18.984Z,6.15
2022-12-25T18:43:53.019Z,6.29
2022-12-25T18:46:25.760Z,6.06
2022-12-25T18:48:54.729Z,5.84
2022-12-25T18:51:22.510Z,5.81
2022-12-25T18:53:50.166Z,5.68
2022-12-25T18:56:18.413Z,5.74
2022-12-25T18:58:47.008Z,5.56
2022-12-25T19:01:17.690Z,5.79
2022-12-25T19:03:46.040Z,5.75
2022-12-25T19:06:18.866Z,5.63
2022-12-25T19:08:46.542Z,5.58
2022-12-25T19:11:14.318Z,5.56
2022-12-25T19:13:42.036Z,5.64
2022-12-25T19:16:09.717Z,5.65
2022-12-25T19:18:38.363Z,5.63
2022-12-25T19:21:07.940Z,5.66
2022-12-25T19:23:37.239Z,5.64
2022-12-25T19:26:06.325Z,5.63
2022-12-25T19:28:36.019Z,5.53
2022-12-25T19:31:04.845Z,5.68
2022-12-25T19:33:32.350Z,5.42
2022-12-25T19:36:05.102Z,5.40
2022-12-25T19:38:33.157Z,5.30
2022-12-25T19:41:05.031Z,5.35
2022-12-25T19:43:34.569Z,5.31
2022-12-25T19:46:02.304Z,5.20
2022-12-25T19:48:31.460Z,5.13
2022-12-25T19:50:59.454Z,5.00
2022-12-25T19:53:27.586Z,5.00
2022-12-25T19:55:54.940Z,4.86
2022-12-25T19:58:23.726Z,4.76
2022-12-25T20:01:03.033Z,4.87
2022-12-25T20:03:30.332Z,4.86
2022-12-25T20:05:58.026Z,4.73
2022-12-25T20:08:25.324Z,4.77
2022-12-25T20:10:53.223Z,4.78
2022-12-25T20:13:21.224Z,4.66
2022-12-25T20:15:48.661Z,4.61
2022-12-25T20:18:16.935Z,4.70
2022-12-25T20:20:45.078Z,4.73
2022-12-25T20:23:12.667Z,4.79
2022-12-25T20:25:42.009Z,4.70
2022-12-25T20:28:09.251Z,4.76
2022-12-25T20:30:40.314Z,4.82
2022-12-25T20:33:07.679Z,5.01
2022-12-25T20:35:34.981Z,5.14
2022-12-25T20:38:02.225Z,5.36
2022-12-25T20:40:29.537Z,5.44
2022-12-25T20:42:56.727Z,5.50
2022-12-25T20:45:24.056Z,5.47
2022-12-25T20:47:51.307Z,5.51
2022-12-25T20:50:18.501Z,5.45
2022-12-25T20:52:45.664Z,5.21
2022-12-25T20:55:14.323Z,5.35
2022-12-25T20:57:41.732Z,5.36
2022-12-25T21:00:10.460Z,5.36
2022-12-25T21:02:38.353Z,5.30
2022-12-25T21:05:08.155Z,5.20
2022-12-25T21:07:35.564Z,5.04
2022-12-25T21:10:03.449Z,5.01
2022-12-25T21:12:31.593Z,4.95
2022-12-25T21:14:58.711Z,4.93
2022-12-25T21:17:25.863Z,4.78
2022-12-25T21:19:53.083Z,4.68
2022-12-25T21:22:20.919Z,4.67
2022-12-25T21:24:52.192Z,4.69
2022-12-25T21:27:19.980Z,4.61
2022-12-25T21:29:47.179Z,4.66
2022-12-25T21:32:32.661Z,4.56
2022-12-25T21:34:59.639Z,4.86
2022-12-25T21:37:26.910Z,4.59
2022-12-25T21:39:54.013Z,4.52
2022-12-25T21:42:21.500Z,4.50
2022-12-25T21:44:49.448Z,4.45
2022-12-25T21:47:17.228Z,4.34
2022-12-25T21:50:02.812Z,4.32
2022-12-25T21:52:30.472Z,4.50
2022-12-25T21:54:57.624Z,4.52
2022-12-25T21:57:24.739Z,4.54
2022-12-25T21:59:52.006Z,4.59
2022-12-25T22:02:19.251Z,4.53
2022-12-25T22:04:46.641Z,4.48
2022-12-25T22:07:20.072Z,4.45
2022-12-25T22:09:49.143Z,4.40
2022-12-25T22:12:36.782Z,4.43
2022-12-25T22:15:09.777Z,4.43
2022-12-25T22:17:58.516Z,4.41
2022-12-25T22:20:37.449Z,4.49
2022-12-25T22:23:05.327Z,4.40
2022-12-25T22:25:32.420Z,4.39
2022-12-25T22:27:59.857Z,4.32
2022-12-25T22:30:29.254Z,4.41
2022-12-25T22:32:56.983Z,4.38
2022-12-25T22:35:24.453Z,4.43
2022-12-25T22:37:51.658Z,4.49
2022-12-25T22:40:20.079Z,4.53
2022-12-25T22:42:48.020Z,4.43
2022-12-25T22:45:15.660Z,4.50
2022-12-25T22:47:42.817Z,4.49
2022-12-25T22:50:11.491Z,4.43
2022-12-25T22:52:39.028Z,4.37
2022-12-25T22:55:08.416Z,4.35
2022-12-25T22:57:36.358Z,4.37
2022-12-25T23:00:06.719Z,4.27
2022-12-25T23:02:35.412Z,4.14
2022-12-25T23:05:03.585Z,4.31
2022-12-25T23:07:31.790Z,4.24
2022-12-25T23:09:58.958Z,4.23
2022-12-25T23:12:45.500Z,4.26
2022-12-25T23:15:12.991Z,4.26
2022-12-25T23:17:58.686Z,4.16
2022-12-25T23:20:44.279Z,4.38
2022-12-25T23:23:35.332Z,4.05
2022-12-25T23:26:09.629Z,3.98
2022-12-25T23:28:57.562Z,4.01
2022-12-25T23:31:39.804Z,3.98
2022-12-25T23:34:07.227Z,3.96
2022-12-25T23:36:34.979Z,3.74
2022-12-25T23:39:09.046Z,3.98
2022-12-25T23:41:38.529Z,4.07
2022-12-25T23:44:05.743Z,4.04
2022-12-25T23:46:32.985Z,4.04
2022-12-25T23:49:00.160Z,4.05
2022-12-25T23:51:27.716Z,4.02
2022-12-25T23:53:55.063Z,4.12
2022-12-25T23:56:22.433Z,4.02
2022-12-25T23:58:53.020Z,4.05
